sensor_id;sensor_type;location;lat;lon;timestamp;P1;durP1;ratioP1;P2;durP2;ratioP2
22007;SDS011;11168;56.976;24.168;2023-05-21T00:01:54;5.22;;;2.17;;
22007;SDS011;11168;56.976;24.168;2023-05-21T00:04:21;4.82;;;2.13;;
22007;SDS011;11168;56.976;24.168;2023-05-21T00:06:50;3.75;;;2.15;;
22007;SDS011;11168;56.976;24.168;2023-05-21T00:09:17;4.15;;;2.00;;
22007;SDS011;11168;56.976;24.168;2023-05-21T00:11:44;7.63;;;2.60;;
22007;SDS011;11168;56.976;24.168;2023-05-21T00:14:11;5.97;;;2.30;;
22007;SDS011;11168;56.976;24.168;2023-05-21T00:16:38;5.50;;;2.40;;
22007;SDS011;11168;56.976;24.168;2023-05-21T00:19:06;3.97;;;2.20;;
22007;SDS011;11168;56.976;24.168;2023-05-21T00:21:33;4.63;;;2.33;;
22007;SDS011;11168;56.976;24.168;2023-05-21T00:24:00;8.57;;;2.45;;
22007;SDS011;11168;56.976;24.168;2023-05-21T00:26:27;3.78;;;2.00;;
22007;SDS011;11168;56.976;24.168;2023-05-21T00:28:54;6.95;;;2.20;;
22007;SDS011;11168;56.976;24.168;2023-05-21T00:31:21;5.93;;;2.28;;
22007;SDS011;11168;56.976;24.168;2023-05-21T00:33:48;4.55;;;2.08;;
22007;SDS011;11168;56.976;24.168;2023-05-21T00:36:16;5.68;;;2.47;;
22007;SDS011;11168;56.976;24.168;2023-05-21T00:38:43;4.63;;;2.38;;
22007;SDS011;11168;56.976;24.168;2023-05-21T00:41:11;3.40;;;1.95;;
22007;SDS011;11168;56.976;24.168;2023-05-21T00:43:38;7.47;;;2.22;;
22007;SDS011;11168;56.976;24.168;2023-05-21T00:46:06;7.75;;;2.58;;
22007;SDS011;11168;56.976;24.168;2023-05-21T00:48:34;6.82;;;2.38;;
22007;SDS011;11168;56.976;24.168;2023-05-21T00:51:01;6.70;;;1.90;;
22007;SDS011;11168;56.976;24.168;2023-05-21T00:53:29;6.00;;;2.33;;
22007;SDS011;11168;56.976;24.168;2023-05-21T00:55:56;5.10;;;2.50;;
22007;SDS011;11168;56.976;24.168;2023-05-21T00:58:23;4.82;;;2.30;;
22007;SDS011;11168;56.976;24.168;2023-05-21T01:00:51;5.63;;;2.20;;
22007;SDS011;11168;56.976;24.168;2023-05-21T01:03:21;7.43;;;2.60;;
22007;SDS011;11168;56.976;24.168;2023-05-21T01:05:49;5.07;;;2.17;;
22007;SDS011;11168;56.976;24.168;2023-05-21T01:08:19;5.80;;;2.30;;
22007;SDS011;11168;56.976;24.168;2023-05-21T01:10:47;5.63;;;2.47;;
22007;SDS011;11168;56.976;24.168;2023-05-21T01:13:15;4.18;;;2.55;;
22007;SDS011;11168;56.976;24.168;2023-05-21T01:15:43;4.25;;;2.50;;
22007;SDS011;11168;56.976;24.168;2023-05-21T01:18:11;3.33;;;2.20;;
22007;SDS011;11168;56.976;24.168;2023-05-21T01:20:39;6.28;;;2.63;;
22007;SDS011;11168;56.976;24.168;2023-05-21T01:23:08;4.03;;;2.72;;
22007;SDS011;11168;56.976;24.168;2023-05-21T01:25:35;5.13;;;2.60;;
22007;SDS011;11168;56.976;24.168;2023-05-21T01:28:02;4.95;;;2.70;;
22007;SDS011;11168;56.976;24.168;2023-05-21T01:30:29;5.75;;;2.50;;
22007;SDS011;11168;56.976;24.168;2023-05-21T01:33:03;5.00;;;2.80;;
22007;SDS011;11168;56.976;24.168;2023-05-21T01:35:41;6.68;;;3.10;;
22007;SDS011;11168;56.976;24.168;2023-05-21T01:38:23;5.75;;;2.70;;
22007;SDS011;11168;56.976;24.168;2023-05-21T01:41:11;5.97;;;2.83;;
22007;SDS011;11168;56.976;24.168;2023-05-21T01:43:40;3.90;;;2.58;;
22007;SDS011;11168;56.976;24.168;2023-05-21T01:46:09;5.63;;;2.60;;
22007;SDS011;11168;56.976;24.168;2023-05-21T01:48:41;8.23;;;3.05;;
22007;SDS011;11168;56.976;24.168;2023-05-21T01:51:09;5.30;;;2.80;;
22007;SDS011;11168;56.976;24.168;2023-05-21T01:53:37;8.25;;;3.30;;
22007;SDS011;11168;56.976;24.168;2023-05-21T01:56:06;9.02;;;3.80;;
22007;SDS011;11168;56.976;24.168;2023-05-21T01:58:33;8.20;;;3.63;;
22007;SDS011;11168;56.976;24.168;2023-05-21T02:01:00;9.15;;;3.65;;
22007;SDS011;11168;56.976;24.168;2023-05-21T02:03:28;6.68;;;3.08;;
22007;SDS011;11168;56.976;24.168;2023-05-21T02:05:56;6.80;;;3.47;;
22007;SDS011;11168;56.976;24.168;2023-05-21T02:08:23;7.28;;;3.30;;
22007;SDS011;11168;56.976;24.168;2023-05-21T02:10:52;7.13;;;2.55;;
22007;SDS011;11168;56.976;24.168;2023-05-21T02:13:19;5.78;;;2.80;;
22007;SDS011;11168;56.976;24.168;2023-05-21T02:15:51;5.90;;;2.90;;
22007;SDS011;11168;56.976;24.168;2023-05-21T02:18:20;6.75;;;2.55;;
22007;SDS011;11168;56.976;24.168;2023-05-21T02:20:47;9.45;;;3.05;;
22007;SDS011;11168;56.976;24.168;2023-05-21T02:23:14;5.78;;;2.92;;
22007;SDS011;11168;56.976;24.168;2023-05-21T02:25:41;7.15;;;3.10;;
22007;SDS011;11168;56.976;24.168;2023-05-21T02:28:09;4.72;;;2.88;;
22007;SDS011;11168;56.976;24.168;2023-05-21T02:30:36;6.13;;;2.85;;
22007;SDS011;11168;56.976;24.168;2023-05-21T02:33:03;5.10;;;2.63;;
22007;SDS011;11168;56.976;24.168;2023-05-21T02:35:30;3.42;;;2.55;;
22007;SDS011;11168;56.976;24.168;2023-05-21T02:37:57;7.60;;;3.30;;
22007;SDS011;11168;56.976;24.168;2023-05-21T02:40:24;3.03;;;2.45;;
22007;SDS011;11168;56.976;24.168;2023-05-21T02:42:51;6.40;;;2.80;;
22007;SDS011;11168;56.976;24.168;2023-05-21T02:45:19;5.22;;;2.63;;
22007;SDS011;11168;56.976;24.168;2023-05-21T02:47:46;5.53;;;2.70;;
22007;SDS011;11168;56.976;24.168;2023-05-21T02:50:13;3.95;;;2.67;;
22007;SDS011;11168;56.976;24.168;2023-05-21T02:52:40;6.32;;;2.90;;
22007;SDS011;11168;56.976;24.168;2023-05-21T02:55:07;5.47;;;2.60;;
22007;SDS011;11168;56.976;24.168;2023-05-21T02:57:35;4.90;;;2.75;;
22007;SDS011;11168;56.976;24.168;2023-05-21T03:00:02;4.80;;;2.88;;
22007;SDS011;11168;56.976;24.168;2023-05-21T03:02:31;6.10;;;2.88;;
22007;SDS011;11168;56.976;24.168;2023-05-21T03:04:58;4.57;;;2.97;;
22007;SDS011;11168;56.976;24.168;2023-05-21T03:07:26;4.88;;;3.20;;
22007;SDS011;11168;56.976;24.168;2023-05-21T03:09:53;5.05;;;3.25;;
22007;SDS011;11168;56.976;24.168;2023-05-21T03:12:20;5.32;;;2.88;;
22007;SDS011;11168;56.976;24.168;2023-05-21T03:14:48;5.63;;;3.15;;
22007;SDS011;11168;56.976;24.168;2023-05-21T03:17:16;5.32;;;2.60;;
22007;SDS011;11168;56.976;24.168;2023-05-21T03:19:44;4.88;;;3.17;;
22007;SDS011;11168;56.976;24.168;2023-05-21T03:22:11;5.00;;;3.25;;
22007;SDS011;11168;56.976;24.168;2023-05-21T03:24:38;5.28;;;3.13;;
22007;SDS011;11168;56.976;24.168;2023-05-21T03:27:05;6.80;;;3.25;;
22007;SDS011;11168;56.976;24.168;2023-05-21T03:29:33;6.53;;;3.40;;
22007;SDS011;11168;56.976;24.168;2023-05-21T03:32:01;7.47;;;3.10;;
22007;SDS011;11168;56.976;24.168;2023-05-21T03:34:28;6.68;;;3.20;;
22007;SDS011;11168;56.976;24.168;2023-05-21T03:36:56;8.73;;;3.47;;
22007;SDS011;11168;56.976;24.168;2023-05-21T03:39:23;6.05;;;3.17;;
22007;SDS011;11168;56.976;24.168;2023-05-21T03:41:50;6.47;;;3.30;;
22007;SDS011;11168;56.976;24.168;2023-05-21T03:44:17;4.10;;;3.00;;
22007;SDS011;11168;56.976;24.168;2023-05-21T03:46:44;3.88;;;2.92;;
22007;SDS011;11168;56.976;24.168;2023-05-21T03:49:12;5.93;;;3.00;;
22007;SDS011;11168;56.976;24.168;2023-05-21T03:51:39;5.88;;;3.28;;
22007;SDS011;11168;56.976;24.168;2023-05-21T03:54:06;4.53;;;3.08;;
22007;SDS011;11168;56.976;24.168;2023-05-21T03:56:33;4.53;;;3.08;;
22007;SDS011;11168;56.976;24.168;2023-05-21T03:59:00;3.70;;;2.40;;
22007;SDS011;11168;56.976;24.168;2023-05-21T04:01:27;4.00;;;2.80;;
22007;SDS011;11168;56.976;24.168;2023-05-21T04:03:54;5.25;;;2.80;;
22007;SDS011;11168;56.976;24.168;2023-05-21T04:06:21;5.90;;;2.25;;
22007;SDS011;11168;56.976;24.168;2023-05-21T04:08:49;4.80;;;2.30;;
22007;SDS011;11168;56.976;24.168;2023-05-21T04:11:16;7.05;;;2.65;;
22007;SDS011;11168;56.976;24.168;2023-05-21T04:13:43;6.18;;;2.80;;
22007;SDS011;11168;56.976;24.168;2023-05-21T04:16:11;7.43;;;2.67;;
22007;SDS011;11168;56.976;24.168;2023-05-21T04:18:40;4.75;;;2.20;;
22007;SDS011;11168;56.976;24.168;2023-05-21T04:21:10;4.00;;;2.65;;
22007;SDS011;11168;56.976;24.168;2023-05-21T04:23:38;5.20;;;2.90;;
22007;SDS011;11168;56.976;24.168;2023-05-21T04:26:05;2.75;;;2.28;;
22007;SDS011;11168;56.976;24.168;2023-05-21T04:28:33;6.13;;;2.65;;
22007;SDS011;11168;56.976;24.168;2023-05-21T04:31:00;9.88;;;2.40;;
22007;SDS011;11168;56.976;24.168;2023-05-21T04:33:28;3.28;;;2.10;;
22007;SDS011;11168;56.976;24.168;2023-05-21T04:35:55;3.90;;;2.35;;
22007;SDS011;11168;56.976;24.168;2023-05-21T04:38:23;4.75;;;2.30;;
22007;SDS011;11168;56.976;24.168;2023-05-21T04:40:51;4.50;;;2.67;;
22007;SDS011;11168;56.976;24.168;2023-05-21T04:43:18;4.22;;;2.30;;
22007;SDS011;11168;56.976;24.168;2023-05-21T04:45:52;4.60;;;2.28;;
22007;SDS011;11168;56.976;24.168;2023-05-21T04:48:20;4.85;;;2.30;;
22007;SDS011;11168;56.976;24.168;2023-05-21T04:50:52;4.75;;;2.30;;
22007;SDS011;11168;56.976;24.168;2023-05-21T04:53:19;4.20;;;2.10;;
22007;SDS011;11168;56.976;24.168;2023-05-21T04:55:47;5.38;;;2.50;;
22007;SDS011;11168;56.976;24.168;2023-05-21T04:58:14;5.22;;;2.60;;
22007;SDS011;11168;56.976;24.168;2023-05-21T05:00:43;3.95;;;2.25;;
22007;SDS011;11168;56.976;24.168;2023-05-21T05:03:17;4.50;;;2.40;;
22007;SDS011;11168;56.976;24.168;2023-05-21T05:05:45;4.40;;;2.13;;
22007;SDS011;11168;56.976;24.168;2023-05-21T05:08:12;7.20;;;2.40;;
22007;SDS011;11168;56.976;24.168;2023-05-21T05:10:41;3.78;;;1.85;;
22007;SDS011;11168;56.976;24.168;2023-05-21T05:13:08;3.45;;;1.92;;
22007;SDS011;11168;56.976;24.168;2023-05-21T05:15:35;4.85;;;1.80;;
22007;SDS011;11168;56.976;24.168;2023-05-21T05:18:02;6.38;;;2.10;;
22007;SDS011;11168;56.976;24.168;2023-05-21T05:20:30;3.97;;;2.15;;
22007;SDS011;11168;56.976;24.168;2023-05-21T05:22:56;5.57;;;1.90;;
22007;SDS011;11168;56.976;24.168;2023-05-21T05:25:23;3.22;;;2.10;;
22007;SDS011;11168;56.976;24.168;2023-05-21T05:27:51;4.05;;;2.05;;
22007;SDS011;11168;56.976;24.168;2023-05-21T05:30:18;2.28;;;2.00;;
22007;SDS011;11168;56.976;24.168;2023-05-21T05:32:46;4.50;;;2.20;;
22007;SDS011;11168;56.976;24.168;2023-05-21T05:35:13;4.20;;;1.90;;
22007;SDS011;11168;56.976;24.168;2023-05-21T05:37:43;2.53;;;2.10;;
22007;SDS011;11168;56.976;24.168;2023-05-21T05:40:10;3.97;;;1.90;;
22007;SDS011;11168;56.976;24.168;2023-05-21T05:42:37;3.25;;;1.90;;
22007;SDS011;11168;56.976;24.168;2023-05-21T05:45:04;5.25;;;1.90;;
22007;SDS011;11168;56.976;24.168;2023-05-21T05:47:31;3.63;;;1.70;;
22007;SDS011;11168;56.976;24.168;2023-05-21T05:49:58;2.13;;;1.80;;
22007;SDS011;11168;56.976;24.168;2023-05-21T05:52:26;4.85;;;1.95;;
22007;SDS011;11168;56.976;24.168;2023-05-21T05:54:53;2.88;;;1.92;;
22007;SDS011;11168;56.976;24.168;2023-05-21T05:57:20;2.25;;;1.50;;
22007;SDS011;11168;56.976;24.168;2023-05-21T05:59:47;4.03;;;1.83;;
22007;SDS011;11168;56.976;24.168;2023-05-21T06:02:15;3.45;;;1.70;;
22007;SDS011;11168;56.976;24.168;2023-05-21T06:04:42;3.08;;;1.92;;
22007;SDS011;11168;56.976;24.168;2023-05-21T06:07:09;2.95;;;2.10;;
22007;SDS011;11168;56.976;24.168;2023-05-21T06:09:36;3.28;;;1.80;;
22007;SDS011;11168;56.976;24.168;2023-05-21T06:12:05;6.65;;;2.15;;
22007;SDS011;11168;56.976;24.168;2023-05-21T06:14:32;4.68;;;1.80;;
22007;SDS011;11168;56.976;24.168;2023-05-21T06:16:59;3.40;;;1.85;;
22007;SDS011;11168;56.976;24.168;2023-05-21T06:19:26;5.95;;;1.73;;
22007;SDS011;11168;56.976;24.168;2023-05-21T06:21:53;4.45;;;1.92;;
22007;SDS011;11168;56.976;24.168;2023-05-21T06:24:20;3.40;;;1.90;;
22007;SDS011;11168;56.976;24.168;2023-05-21T06:26:47;2.03;;;1.48;;
22007;SDS011;11168;56.976;24.168;2023-05-21T06:29:14;3.30;;;1.50;;
22007;SDS011;11168;56.976;24.168;2023-05-21T06:31:42;3.10;;;1.42;;
22007;SDS011;11168;56.976;24.168;2023-05-21T06:34:10;1.85;;;1.50;;
22007;SDS011;11168;56.976;24.168;2023-05-21T06:36:37;4.07;;;1.55;;
22007;SDS011;11168;56.976;24.168;2023-05-21T06:39:04;3.60;;;1.70;;
22007;SDS011;11168;56.976;24.168;2023-05-21T06:41:32;3.90;;;1.55;;
22007;SDS011;11168;56.976;24.168;2023-05-21T06:43:59;2.08;;;1.50;;
22007;SDS011;11168;56.976;24.168;2023-05-21T06:46:26;6.35;;;1.70;;
22007;SDS011;11168;56.976;24.168;2023-05-21T06:48:53;1.58;;;1.30;;
22007;SDS011;11168;56.976;24.168;2023-05-21T06:51:20;6.38;;;1.80;;
22007;SDS011;11168;56.976;24.168;2023-05-21T06:53:47;5.03;;;1.60;;
22007;SDS011;11168;56.976;24.168;2023-05-21T06:56:14;3.45;;;1.77;;
22007;SDS011;11168;56.976;24.168;2023-05-21T06:58:41;2.53;;;1.60;;
22007;SDS011;11168;56.976;24.168;2023-05-21T07:01:08;4.45;;;1.42;;
22007;SDS011;11168;56.976;24.168;2023-05-21T07:03:35;3.22;;;1.58;;
22007;SDS011;11168;56.976;24.168;2023-05-21T07:06:02;4.65;;;1.50;;
22007;SDS011;11168;56.976;24.168;2023-05-21T07:08:29;5.80;;;1.55;;
22007;SDS011;11168;56.976;24.168;2023-05-21T07:10:56;3.65;;;1.70;;
22007;SDS011;11168;56.976;24.168;2023-05-21T07:13:24;2.28;;;1.50;;
22007;SDS011;11168;56.976;24.168;2023-05-21T07:15:51;3.80;;;1.58;;
22007;SDS011;11168;56.976;24.168;2023-05-21T07:18:18;3.30;;;1.80;;
22007;SDS011;11168;56.976;24.168;2023-05-21T07:20:45;3.42;;;1.80;;
22007;SDS011;11168;56.976;24.168;2023-05-21T07:23:12;4.50;;;1.60;;
22007;SDS011;11168;56.976;24.168;2023-05-21T07:25:39;2.45;;;1.52;;
22007;SDS011;11168;56.976;24.168;2023-05-21T07:28:06;2.28;;;1.70;;
22007;SDS011;11168;56.976;24.168;2023-05-21T07:30:33;2.47;;;1.40;;
22007;SDS011;11168;56.976;24.168;2023-05-21T07:33:00;2.95;;;1.30;;
22007;SDS011;11168;56.976;24.168;2023-05-21T07:35:27;1.77;;;1.30;;
22007;SDS011;11168;56.976;24.168;2023-05-21T07:37:54;4.75;;;1.52;;
22007;SDS011;11168;56.976;24.168;2023-05-21T07:40:21;2.88;;;1.38;;
22007;SDS011;11168;56.976;24.168;2023-05-21T07:42:48;2.25;;;1.52;;
22007;SDS011;11168;56.976;24.168;2023-05-21T07:45:16;2.20;;;1.40;;
22007;SDS011;11168;56.976;24.168;2023-05-21T07:47:43;3.78;;;1.30;;
22007;SDS011;11168;56.976;24.168;2023-05-21T07:50:12;3.50;;;1.40;;
22007;SDS011;11168;56.976;24.168;2023-05-21T07:52:40;2.83;;;1.30;;
22007;SDS011;11168;56.976;24.168;2023-05-21T07:55:07;2.67;;;1.42;;
22007;SDS011;11168;56.976;24.168;2023-05-21T07:57:35;2.33;;;1.60;;
22007;SDS011;11168;56.976;24.168;2023-05-21T08:00:02;2.47;;;1.50;;
22007;SDS011;11168;56.976;24.168;2023-05-21T08:05:00;3.80;;;1.40;;
22007;SDS011;11168;56.976;24.168;2023-05-21T08:07:27;2.17;;;1.10;;
22007;SDS011;11168;56.976;24.168;2023-05-21T08:09:54;3.80;;;1.30;;
22007;SDS011;11168;56.976;24.168;2023-05-21T08:12:21;2.30;;;1.15;;
22007;SDS011;11168;56.976;24.168;2023-05-21T08:14:48;3.33;;;1.50;;
22007;SDS011;11168;56.976;24.168;2023-05-21T08:17:15;2.63;;;1.42;;
22007;SDS011;11168;56.976;24.168;2023-05-21T08:19:42;4.65;;;1.33;;
22007;SDS011;11168;56.976;24.168;2023-05-21T08:22:09;1.95;;;1.33;;
22007;SDS011;11168;56.976;24.168;2023-05-21T08:24:36;2.05;;;1.30;;
22007;SDS011;11168;56.976;24.168;2023-05-21T08:27:03;3.85;;;1.70;;
22007;SDS011;11168;56.976;24.168;2023-05-21T08:29:30;3.92;;;1.50;;
22007;SDS011;11168;56.976;24.168;2023-05-21T08:31:58;5.20;;;1.40;;
22007;SDS011;11168;56.976;24.168;2023-05-21T08:34:25;3.22;;;1.60;;
22007;SDS011;11168;56.976;24.168;2023-05-21T08:36:52;7.70;;;1.88;;
22007;SDS011;11168;56.976;24.168;2023-05-21T08:39:19;2.67;;;1.27;;
22007;SDS011;11168;56.976;24.168;2023-05-21T08:41:46;2.17;;;1.33;;
22007;SDS011;11168;56.976;24.168;2023-05-21T08:44:19;2.97;;;1.30;;
22007;SDS011;11168;56.976;24.168;2023-05-21T08:46:48;1.63;;;1.30;;
22007;SDS011;11168;56.976;24.168;2023-05-21T08:49:17;3.20;;;1.35;;
22007;SDS011;11168;56.976;24.168;2023-05-21T08:51:52;3.72;;;1.50;;
22007;SDS011;11168;56.976;24.168;2023-05-21T08:54:21;4.13;;;1.42;;
22007;SDS011;11168;56.976;24.168;2023-05-21T08:56:48;2.00;;;1.20;;
22007;SDS011;11168;56.976;24.168;2023-05-21T08:59:16;5.32;;;1.27;;
22007;SDS011;11168;56.976;24.168;2023-05-21T09:01:45;3.00;;;1.20;;
22007;SDS011;11168;56.976;24.168;2023-05-21T09:04:15;1.90;;;1.33;;
22007;SDS011;11168;56.976;24.168;2023-05-21T09:06:47;3.63;;;1.30;;
22007;SDS011;11168;56.976;24.168;2023-05-21T09:09:18;2.13;;;1.48;;
22007;SDS011;11168;56.976;24.168;2023-05-21T09:12:06;4.47;;;1.33;;
22007;SDS011;11168;56.976;24.168;2023-05-21T09:14:34;1.95;;;1.10;;
22007;SDS011;11168;56.976;24.168;2023-05-21T09:17:02;3.13;;;1.30;;
22007;SDS011;11168;56.976;24.168;2023-05-21T09:19:29;2.60;;;1.55;;
22007;SDS011;11168;56.976;24.168;2023-05-21T09:22:03;1.50;;;1.15;;
22007;SDS011;11168;56.976;24.168;2023-05-21T09:24:30;3.28;;;1.33;;
22007;SDS011;11168;56.976;24.168;2023-05-21T09:27:01;4.97;;;1.50;;
22007;SDS011;11168;56.976;24.168;2023-05-21T09:29:28;1.15;;;1.05;;
22007;SDS011;11168;56.976;24.168;2023-05-21T09:31:55;4.25;;;1.40;;
22007;SDS011;11168;56.976;24.168;2023-05-21T09:34:23;4.00;;;1.40;;
22007;SDS011;11168;56.976;24.168;2023-05-21T09:36:50;4.50;;;1.40;;
22007;SDS011;11168;56.976;24.168;2023-05-21T09:39:27;3.10;;;1.38;;
22007;SDS011;11168;56.976;24.168;2023-05-21T09:41:56;2.10;;;1.40;;
22007;SDS011;11168;56.976;24.168;2023-05-21T09:44:23;2.50;;;1.50;;
22007;SDS011;11168;56.976;24.168;2023-05-21T09:46:50;2.38;;;1.40;;
22007;SDS011;11168;56.976;24.168;2023-05-21T09:49:23;3.72;;;1.30;;
22007;SDS011;11168;56.976;24.168;2023-05-21T09:51:55;2.35;;;1.40;;
22007;SDS011;11168;56.976;24.168;2023-05-21T09:54:24;2.38;;;1.25;;
22007;SDS011;11168;56.976;24.168;2023-05-21T09:56:58;2.35;;;1.30;;
22007;SDS011;11168;56.976;24.168;2023-05-21T09:59:34;2.78;;;1.40;;
22007;SDS011;11168;56.976;24.168;2023-05-21T10:02:02;2.28;;;1.40;;
22007;SDS011;11168;56.976;24.168;2023-05-21T10:04:29;5.72;;;1.50;;
22007;SDS011;11168;56.976;24.168;2023-05-21T10:06:57;4.13;;;1.67;;
22007;SDS011;11168;56.976;24.168;2023-05-21T10:09:26;4.50;;;1.48;;
22007;SDS011;11168;56.976;24.168;2023-05-21T10:11:54;2.53;;;1.60;;
22007;SDS011;11168;56.976;24.168;2023-05-21T10:14:24;1.92;;;1.27;;
22007;SDS011;11168;56.976;24.168;2023-05-21T10:16:54;3.08;;;1.40;;
22007;SDS011;11168;56.976;24.168;2023-05-21T10:19:21;3.33;;;1.50;;
22007;SDS011;11168;56.976;24.168;2023-05-21T10:21:50;3.42;;;1.50;;
22007;SDS011;11168;56.976;24.168;2023-05-21T10:24:18;1.75;;;1.50;;
22007;SDS011;11168;56.976;24.168;2023-05-21T10:26:46;4.90;;;1.58;;
22007;SDS011;11168;56.976;24.168;2023-05-21T10:29:14;5.15;;;1.70;;
22007;SDS011;11168;56.976;24.168;2023-05-21T10:31:44;2.78;;;1.60;;
22007;SDS011;11168;56.976;24.168;2023-05-21T10:34:15;3.97;;;1.67;;
22007;SDS011;11168;56.976;24.168;2023-05-21T10:36:42;3.58;;;1.50;;
22007;SDS011;11168;56.976;24.168;2023-05-21T10:39:11;5.20;;;1.63;;
22007;SDS011;11168;56.976;24.168;2023-05-21T10:41:49;3.00;;;1.52;;
22007;SDS011;11168;56.976;24.168;2023-05-21T10:47:24;3.35;;;1.42;;
22007;SDS011;11168;56.976;24.168;2023-05-21T11:00:55;3.03;;;1.42;;
22007;SDS011;11168;56.976;24.168;2023-05-21T11:03:24;5.50;;;1.50;;
22007;SDS011;11168;56.976;24.168;2023-05-21T11:05:54;2.17;;;1.42;;
22007;SDS011;11168;56.976;24.168;2023-05-21T11:08:23;4.25;;;1.42;;
22007;SDS011;11168;56.976;24.168;2023-05-21T11:10:51;3.00;;;1.60;;
22007;SDS011;11168;56.976;24.168;2023-05-21T11:13:20;2.00;;;1.40;;
22007;SDS011;11168;56.976;24.168;2023-05-21T11:21:08;2.03;;;1.30;;
22007;SDS011;11168;56.976;24.168;2023-05-21T11:23:55;3.57;;;1.70;;
22007;SDS011;11168;56.976;24.168;2023-05-21T11:26:29;3.92;;;1.50;;
22007;SDS011;11168;56.976;24.168;2023-05-21T11:29:17;2.53;;;1.23;;
22007;SDS011;11168;56.976;24.168;2023-05-21T11:31:45;4.25;;;1.50;;
22007;SDS011;11168;56.976;24.168;2023-05-21T11:39:48;4.15;;;1.67;;
22007;SDS011;11168;56.976;24.168;2023-05-21T11:44:57;2.35;;;1.65;;
22007;SDS011;11168;56.976;24.168;2023-05-21T11:47:26;5.18;;;1.33;;
22007;SDS011;11168;56.976;24.168;2023-05-21T11:49:54;3.83;;;1.58;;
22007;SDS011;11168;56.976;24.168;2023-05-21T11:52:23;4.95;;;1.63;;
22007;SDS011;11168;56.976;24.168;2023-05-21T11:54:52;3.40;;;1.58;;
22007;SDS011;11168;56.976;24.168;2023-05-21T11:57:23;4.22;;;1.90;;
22007;SDS011;11168;56.976;24.168;2023-05-21T11:59:56;5.03;;;1.50;;
22007;SDS011;11168;56.976;24.168;2023-05-21T12:02:25;2.20;;;1.42;;
22007;SDS011;11168;56.976;24.168;2023-05-21T12:04:54;6.45;;;1.60;;
22007;SDS011;11168;56.976;24.168;2023-05-21T12:07:28;2.97;;;1.50;;
22007;SDS011;11168;56.976;24.168;2023-05-21T12:09:56;5.47;;;1.70;;
22007;SDS011;11168;56.976;24.168;2023-05-21T12:12:24;1.40;;;1.30;;
22007;SDS011;11168;56.976;24.168;2023-05-21T12:15:07;3.30;;;1.80;;
22007;SDS011;11168;56.976;24.168;2023-05-21T12:17:35;4.63;;;1.65;;
22007;SDS011;11168;56.976;24.168;2023-05-21T12:20:02;4.95;;;1.50;;
22007;SDS011;11168;56.976;24.168;2023-05-21T12:22:33;3.65;;;1.50;;
22007;SDS011;11168;56.976;24.168;2023-05-21T12:24:59;6.82;;;1.92;;
22007;SDS011;11168;56.976;24.168;2023-05-21T12:27:27;6.50;;;1.70;;
22007;SDS011;11168;56.976;24.168;2023-05-21T12:29:58;3.17;;;1.50;;
22007;SDS011;11168;56.976;24.168;2023-05-21T12:32:26;4.60;;;1.50;;
22007;SDS011;11168;56.976;24.168;2023-05-21T12:34:54;3.10;;;1.33;;
22007;SDS011;11168;56.976;24.168;2023-05-21T12:39:54;3.97;;;1.70;;
22007;SDS011;11168;56.976;24.168;2023-05-21T12:42:27;5.90;;;1.80;;
22007;SDS011;11168;56.976;24.168;2023-05-21T12:44:56;4.00;;;1.65;;
22007;SDS011;11168;56.976;24.168;2023-05-21T12:47:23;7.03;;;1.70;;
22007;SDS011;11168;56.976;24.168;2023-05-21T12:49:58;3.40;;;1.30;;
22007;SDS011;11168;56.976;24.168;2023-05-21T12:52:29;5.43;;;1.55;;
22007;SDS011;11168;56.976;24.168;2023-05-21T12:54:56;2.20;;;1.60;;
22007;SDS011;11168;56.976;24.168;2023-05-21T12:57:25;4.35;;;1.65;;
22007;SDS011;11168;56.976;24.168;2023-05-21T12:59:54;2.35;;;1.45;;
22007;SDS011;11168;56.976;24.168;2023-05-21T13:02:25;4.00;;;1.88;;
22007;SDS011;11168;56.976;24.168;2023-05-21T13:05:16;2.80;;;1.67;;
22007;SDS011;11168;56.976;24.168;2023-05-21T13:07:44;7.25;;;1.85;;
22007;SDS011;11168;56.976;24.168;2023-05-21T13:10:16;2.40;;;1.52;;
22007;SDS011;11168;56.976;24.168;2023-05-21T13:12:44;2.53;;;1.60;;
22007;SDS011;11168;56.976;24.168;2023-05-21T13:15:11;3.00;;;1.75;;
22007;SDS011;11168;56.976;24.168;2023-05-21T13:17:38;4.65;;;1.80;;
22007;SDS011;11168;56.976;24.168;2023-05-21T13:22:34;6.15;;;1.85;;
22007;SDS011;11168;56.976;24.168;2023-05-21T13:25:04;8.85;;;1.80;;
22007;SDS011;11168;56.976;24.168;2023-05-21T13:27:32;2.08;;;1.45;;
22007;SDS011;11168;56.976;24.168;2023-05-21T13:30:00;6.80;;;1.90;;
22007;SDS011;11168;56.976;24.168;2023-05-21T13:32:27;3.28;;;1.77;;
22007;SDS011;11168;56.976;24.168;2023-05-21T13:34:54;2.58;;;1.77;;
22007;SDS011;11168;56.976;24.168;2023-05-21T13:37:21;3.08;;;1.50;;
22007;SDS011;11168;56.976;24.168;2023-05-21T13:39:48;7.72;;;1.73;;
22007;SDS011;11168;56.976;24.168;2023-05-21T13:42:15;5.80;;;1.90;;
22007;SDS011;11168;56.976;24.168;2023-05-21T13:44:42;3.08;;;1.92;;
22007;SDS011;11168;56.976;24.168;2023-05-21T13:47:09;9.18;;;1.73;;
22007;SDS011;11168;56.976;24.168;2023-05-21T13:49:37;3.33;;;1.70;;
22007;SDS011;11168;56.976;24.168;2023-05-21T13:52:06;9.73;;;2.10;;
22007;SDS011;11168;56.976;24.168;2023-05-21T13:54:34;9.13;;;2.28;;
22007;SDS011;11168;56.976;24.168;2023-05-21T13:57:02;5.22;;;1.85;;
22007;SDS011;11168;56.976;24.168;2023-05-21T13:59:29;5.60;;;2.08;;
22007;SDS011;11168;56.976;24.168;2023-05-21T14:01:59;4.95;;;1.92;;
22007;SDS011;11168;56.976;24.168;2023-05-21T14:04:26;4.68;;;2.10;;
22007;SDS011;11168;56.976;24.168;2023-05-21T14:06:53;3.60;;;1.90;;
22007;SDS011;11168;56.976;24.168;2023-05-21T14:09:20;3.47;;;1.88;;
22007;SDS011;11168;56.976;24.168;2023-05-21T14:11:48;5.72;;;1.90;;
22007;SDS011;11168;56.976;24.168;2023-05-21T14:14:16;4.25;;;2.15;;
22007;SDS011;11168;56.976;24.168;2023-05-21T14:16:44;4.22;;;1.83;;
22007;SDS011;11168;56.976;24.168;2023-05-21T14:19:12;7.03;;;2.00;;
22007;SDS011;11168;56.976;24.168;2023-05-21T14:21:40;4.25;;;1.98;;
22007;SDS011;11168;56.976;24.168;2023-05-21T14:24:07;4.13;;;1.88;;
22007;SDS011;11168;56.976;24.168;2023-05-21T14:26:35;4.80;;;1.98;;
22007;SDS011;11168;56.976;24.168;2023-05-21T14:29:05;8.25;;;1.80;;
22007;SDS011;11168;56.976;24.168;2023-05-21T14:31:32;3.88;;;1.85;;
22007;SDS011;11168;56.976;24.168;2023-05-21T14:33:59;6.47;;;2.03;;
22007;SDS011;11168;56.976;24.168;2023-05-21T14:36:28;4.28;;;2.13;;
22007;SDS011;11168;56.976;24.168;2023-05-21T14:38:56;4.53;;;1.90;;
22007;SDS011;11168;56.976;24.168;2023-05-21T14:41:23;5.10;;;2.00;;
22007;SDS011;11168;56.976;24.168;2023-05-21T14:43:53;4.72;;;1.90;;
22007;SDS011;11168;56.976;24.168;2023-05-21T14:46:20;4.20;;;2.00;;
22007;SDS011;11168;56.976;24.168;2023-05-21T14:48:47;4.75;;;2.15;;
22007;SDS011;11168;56.976;24.168;2023-05-21T14:51:14;4.10;;;1.95;;
22007;SDS011;11168;56.976;24.168;2023-05-21T14:53:42;4.38;;;2.10;;
22007;SDS011;11168;56.976;24.168;2023-05-21T14:56:09;3.95;;;2.00;;
22007;SDS011;11168;56.976;24.168;2023-05-21T14:58:36;6.30;;;2.10;;
22007;SDS011;11168;56.976;24.168;2023-05-21T15:01:03;6.38;;;2.08;;
22007;SDS011;11168;56.976;24.168;2023-05-21T15:03:30;6.28;;;2.33;;
22007;SDS011;11168;56.976;24.168;2023-05-21T15:05:57;4.18;;;2.30;;
22007;SDS011;11168;56.976;24.168;2023-05-21T15:08:24;4.35;;;2.10;;
22007;SDS011;11168;56.976;24.168;2023-05-21T15:10:51;5.85;;;2.13;;
22007;SDS011;11168;56.976;24.168;2023-05-21T15:13:18;5.57;;;1.75;;
22007;SDS011;11168;56.976;24.168;2023-05-21T15:15:47;4.70;;;1.73;;